Comstock, Minnesota
Current Conditions -  °F | °C
As of 12:34 PM on Thursday 30 Oct 2014 (Local Time) from KJKJ Reporting Station
Overcast Overcast  
Wind Chill: 31°   Ceiling: 3200
Heat Index: 41°   Visibility: 10mi
Dew Point: 37°   Wind: 22mph
Humidity: 87%   Direction: 360°N
Pressure: 30.27"   Gusts: 26mph
Location:  46.66°N, 96.75°W
Report Text: KJKJ 301734Z AUTO 36019G23KT 10SM SCT019 OVC032 05/03 A3027 RMK AO2
Loading
Personal Weather Stations






























Interactive Weather Map
Tropical Storm Tracking
New forecast layout! Learn more

10-Day Weather Forecast

Advertisements
Track Severe Weather on mobile